createdAt,value
2019-01-04T00:00:44.329Z,5.81
2019-01-04T00:01:42.868Z,5.74
2019-01-04T00:02:41.444Z,5.81
2019-01-04T00:03:40.383Z,5.82
2019-01-04T00:04:38.923Z,5.89
2019-01-04T00:05:37.639Z,5.96
2019-01-04T00:06:36.200Z,5.99
2019-01-04T00:07:34.748Z,5.94
2019-01-04T00:08:33.262Z,5.97
2019-01-04T00:09:32.044Z,6.03
2019-01-04T00:10:30.715Z,5.9
2019-01-04T00:11:29.270Z,5.89
2019-01-04T00:12:28.103Z,5.82
2019-01-04T00:13:26.695Z,5.83
2019-01-04T00:14:25.236Z,5.89
2019-01-04T00:15:23.815Z,5.94
2019-01-04T00:16:22.420Z,5.89
2019-01-04T00:17:20.975Z,5.96
2019-01-04T00:18:19.667Z,5.83
2019-01-04T00:19:18.309Z,5.78
2019-01-04T00:20:16.936Z,5.75
2019-01-04T00:21:15.459Z,5.71
2019-01-04T00:22:14.262Z,5.81
2019-01-04T00:23:12.881Z,5.89
2019-01-04T00:24:11.441Z,5.81
2019-01-04T00:25:09.993Z,5.82
2019-01-04T00:26:08.640Z,5.83
2019-01-04T00:27:07.156Z,5.83
2019-01-04T00:28:05.772Z,5.86
2019-01-04T00:29:04.549Z,5.75
2019-01-04T00:30:03.111Z,5.65
2019-01-04T00:31:01.886Z,5.75
2019-01-04T00:32:00.670Z,5.65
2019-01-04T00:32:59.149Z,5.65
2019-01-04T00:33:57.930Z,5.63
2019-01-04T00:34:56.720Z,5.53
2019-01-04T00:35:55.321Z,5.63
2019-01-04T00:36:53.983Z,5.45
2019-01-04T00:37:52.697Z,5.54
2019-01-04T00:38:51.241Z,5.49
2019-01-04T00:39:49.806Z,5.31
2019-01-04T00:40:48.400Z,5.45
2019-01-04T00:41:46.928Z,5.45
2019-01-04T00:42:45.677Z,5.45
2019-01-04T00:43:44.463Z,5.51
2019-01-04T00:44:43.011Z,5.51
2019-01-04T00:45:41.667Z,5.35
2019-01-04T00:46:40.349Z,5.43
2019-01-04T00:49:20.705Z,5.58
2019-01-04T00:50:19.259Z,5.63
2019-01-04T00:51:18.140Z,5.57
2019-01-04T00:52:16.679Z,5.58
2019-01-04T00:53:16.118Z,5.67
2019-01-04T00:54:14.658Z,5.72
2019-01-04T00:55:13.208Z,5.71
2019-01-04T00:56:11.960Z,5.63
2019-01-04T00:57:10.475Z,5.48
2019-01-04T00:58:09.041Z,5.54
2019-01-04T00:59:07.750Z,5.58
2019-01-04T01:00:06.568Z,5.49
2019-01-04T01:01:05.089Z,5.6
2019-01-04T01:02:03.748Z,5.6
2019-01-04T01:03:02.433Z,5.54
2019-01-04T01:04:00.952Z,5.53
2019-01-04T01:04:59.509Z,5.6
2019-01-04T01:05:58.089Z,5.63
2019-01-04T01:08:20.635Z,5.78
2019-01-04T01:09:19.174Z,5.71
2019-01-04T01:10:17.829Z,5.78
2019-01-04T01:11:16.613Z,5.74
2019-01-04T01:14:55.465Z,5.6
2019-01-04T01:15:54.010Z,5.61
2019-01-04T01:16:53.203Z,5.61
2019-01-04T01:17:51.906Z,5.68
2019-01-04T01:18:50.554Z,5.68
2019-01-04T01:19:49.064Z,5.64
2019-01-04T01:20:47.643Z,5.75
2019-01-04T01:21:46.372Z,5.68
2019-01-04T01:22:45.178Z,5.68
2019-01-04T01:23:43.930Z,5.67
2019-01-04T01:24:42.558Z,5.76
2019-01-04T01:25:41.067Z,5.71
2019-01-04T01:26:39.620Z,5.72
2019-01-04T01:27:38.190Z,5.85
2019-01-04T01:28:36.753Z,5.81
2019-01-04T01:29:35.286Z,5.83
2019-01-04T01:30:33.836Z,5.74
2019-01-04T01:31:32.577Z,5.64
2019-01-04T01:32:31.108Z,5.56
2019-01-04T01:33:29.658Z,5.56
2019-01-04T01:34:28.460Z,5.54
2019-01-04T01:35:26.994Z,5.6
2019-01-04T01:36:25.565Z,5.57
2019-01-04T01:37:24.342Z,5.45
2019-01-04T01:38:22.899Z,5.43
2019-01-04T01:39:21.661Z,5.46
2019-01-04T01:40:20.427Z,5.48
2019-01-04T01:41:20.091Z,5.48
2019-01-04T01:42:19.584Z,5.36
2019-01-04T01:43:18.288Z,5.42
2019-01-04T01:44:16.835Z,5.43
2019-01-04T01:45:15.377Z,5.49
2019-01-04T01:46:13.936Z,5.53
2019-01-04T01:47:12.479Z,5.45
2019-01-04T01:48:11.025Z,5.31
2019-01-04T01:49:09.776Z,5.42
2019-01-04T01:50:08.548Z,5.38
2019-01-04T01:51:07.119Z,5.4
2019-01-04T01:52:05.792Z,5.4
2019-01-04T01:53:04.512Z,5.39
2019-01-04T01:54:03.051Z,5.43
2019-01-04T01:55:01.625Z,5.45
2019-01-04T01:56:00.176Z,5.39
2019-01-04T01:56:58.706Z,5.28
2019-01-04T01:57:57.250Z,5.27
2019-01-04T01:58:55.967Z,5.2
2019-01-04T01:59:54.660Z,5.24
2019-01-04T02:00:53.182Z,5.18
2019-01-04T02:01:51.915Z,5.25
2019-01-04T02:02:50.622Z,5.27
2019-01-04T02:03:49.336Z,5.22
2019-01-04T02:04:48.020Z,5.25
2019-01-04T02:05:46.761Z,5.36
2019-01-04T02:06:45.311Z,5.33
2019-01-04T02:07:44.124Z,5.28
2019-01-04T02:08:42.687Z,5.25
2019-01-04T02:09:41.462Z,5.36
2019-01-04T02:10:40.133Z,5.43
2019-01-04T02:11:38.736Z,5.3
2019-01-04T02:12:37.264Z,5.35
2019-01-04T02:13:36.039Z,5.39
2019-01-04T02:14:34.637Z,5.39
2019-01-04T02:15:33.240Z,5.54
2019-01-04T02:16:31.756Z,5.53
2019-01-04T02:17:30.365Z,5.49
2019-01-04T02:18:28.935Z,5.56
2019-01-04T02:19:27.434Z,5.35
2019-01-04T02:20:25.975Z,5.39
2019-01-04T02:21:24.536Z,5.45
2019-01-04T02:22:23.116Z,5.45
2019-01-04T02:23:21.926Z,5.49
2019-01-04T02:24:20.621Z,5.4
2019-01-04T02:25:19.169Z,5.45
2019-01-04T02:26:17.846Z,5.57
2019-01-04T02:27:16.479Z,5.53
2019-01-04T02:28:15.074Z,5.6
2019-01-04T02:29:13.617Z,5.45
2019-01-04T02:30:12.138Z,5.58
2019-01-04T02:31:10.676Z,5.53
2019-01-04T02:32:09.217Z,5.53
2019-01-04T02:33:07.962Z,5.46
2019-01-04T02:34:06.635Z,5.48
2019-01-04T02:35:05.175Z,5.53
2019-01-04T02:36:03.963Z,5.45
2019-01-04T02:37:02.601Z,5.39
2019-01-04T02:38:01.156Z,5.4
2019-01-04T02:38:59.671Z,5.38
2019-01-04T02:39:58.219Z,5.35
2019-01-04T02:40:56.764Z,5.31
2019-01-04T02:41:55.328Z,5.31
2019-01-04T02:42:53.863Z,5.4
2019-01-04T02:43:52.390Z,5.36
2019-01-04T02:44:50.917Z,5.17
2019-01-04T02:45:49.537Z,5.27
2019-01-04T02:46:48.117Z,5.25
2019-01-04T02:47:46.926Z,5.31
2019-01-04T02:48:45.651Z,5.36
2019-01-04T02:49:44.437Z,5.25
2019-01-04T02:50:42.958Z,5.33
2019-01-04T02:51:41.479Z,5.21
2019-01-04T02:52:40.259Z,5.22
2019-01-04T02:53:38.810Z,5.3
2019-01-04T02:54:37.368Z,5.27
2019-01-04T02:55:36.285Z,5.27
2019-01-04T02:56:34.915Z,5.24
2019-01-04T02:57:33.490Z,5.38
2019-01-04T02:58:32.039Z,5.22
2019-01-04T02:59:30.569Z,5.28
2019-01-04T03:00:29.107Z,5.3
2019-01-04T03:01:27.660Z,5.25
2019-01-04T03:02:26.198Z,5.33
2019-01-04T03:03:24.737Z,5.33
2019-01-04T03:04:23.295Z,5.22
2019-01-04T03:05:21.997Z,5.31
2019-01-04T03:06:20.674Z,5.4
2019-01-04T03:07:19.208Z,5.4
2019-01-04T03:08:17.987Z,5.35
2019-01-04T03:09:16.819Z,5.31
2019-01-04T03:10:16.127Z,5.4
2019-01-04T03:11:14.706Z,5.36
2019-01-04T03:12:13.240Z,5.35
2019-01-04T03:13:11.794Z,5.38
2019-01-04T03:14:10.326Z,5.53
2019-01-04T03:15:08.848Z,5.49
2019-01-04T03:16:07.398Z,5.54
2019-01-04T03:17:06.142Z,5.53
2019-01-04T03:18:04.778Z,5.61
2019-01-04T03:19:03.303Z,5.54
2019-01-04T03:20:02.187Z,5.64
2019-01-04T03:21:00.722Z,5.54
2019-01-04T03:21:59.232Z,5.54
2019-01-04T03:22:57.903Z,5.51
2019-01-04T03:23:56.423Z,5.51
2019-01-04T03:24:55.039Z,5.46
2019-01-04T03:25:53.603Z,5.56
2019-01-04T03:26:52.319Z,5.48
2019-01-04T03:27:50.861Z,5.33
2019-01-04T03:28:49.398Z,5.39
2019-01-04T03:29:48.313Z,5.51
2019-01-04T03:30:46.847Z,5.43
2019-01-04T03:31:45.396Z,5.39
2019-01-04T03:32:44.041Z,5.42
2019-01-04T03:33:42.650Z,5.38
2019-01-04T03:34:41.241Z,5.46
2019-01-04T03:35:40.063Z,5.49
2019-01-04T03:36:38.805Z,5.39
2019-01-04T03:37:37.367Z,5.48
2019-01-04T03:38:36.057Z,5.53
2019-01-04T03:39:34.749Z,5.54
2019-01-04T03:40:33.289Z,5.48
2019-01-04T03:41:31.835Z,5.51
2019-01-04T03:42:30.401Z,5.46
2019-01-04T03:43:29.110Z,5.6
2019-01-04T03:44:27.651Z,5.61
2019-01-04T03:45:26.522Z,5.58
2019-01-04T03:46:25.055Z,5.65
2019-01-04T03:47:23.606Z,5.72
2019-01-04T03:48:22.275Z,5.51
2019-01-04T03:49:20.807Z,5.58
2019-01-04T03:50:19.369Z,5.49
2019-01-04T03:51:18.034Z,5.46
2019-01-04T03:52:16.586Z,5.51
2019-01-04T03:53:15.129Z,5.43
2019-01-04T03:54:14.235Z,5.4
2019-01-04T03:55:12.794Z,5.3
2019-01-04T03:56:11.354Z,5.25
2019-01-04T03:58:51.801Z,5.43
2019-01-04T03:59:50.499Z,5.38
2019-01-04T04:00:49.043Z,5.35
2019-01-04T04:01:47.817Z,5.27
2019-01-04T04:02:46.426Z,5.27
2019-01-04T04:03:44.969Z,5.36
2019-01-04T04:04:43.515Z,5.27
2019-01-04T04:05:42.061Z,5.25
2019-01-04T04:06:40.697Z,5.24
2019-01-04T04:07:39.231Z,5.25
2019-01-04T04:08:37.804Z,5.17
2019-01-04T04:09:36.514Z,5.15
2019-01-04T04:10:35.074Z,5.2
2019-01-04T04:11:33.839Z,5.18
2019-01-04T04:12:32.546Z,5.25
2019-01-04T04:13:32.072Z,5.03
2019-01-04T04:14:30.627Z,4.99
2019-01-04T04:15:29.157Z,5.06
2019-01-04T04:16:27.687Z,5.25
2019-01-04T04:17:26.252Z,5.35
2019-01-04T04:18:24.802Z,5.31
2019-01-04T04:19:23.342Z,5.21
2019-01-04T04:20:21.975Z,5.21
2019-01-04T04:21:20.712Z,5.13
2019-01-04T04:22:19.262Z,5.24
2019-01-04T04:23:17.990Z,5.27
2019-01-04T04:24:16.687Z,5.24
2019-01-04T04:26:39.568Z,5.3
2019-01-04T04:27:38.356Z,5.3
2019-01-04T04:28:36.958Z,5.3
2019-01-04T04:29:35.509Z,5.22
2019-01-04T04:30:34.113Z,5.22
2019-01-04T04:31:33.479Z,5.24
2019-01-04T04:32:32.125Z,5.22
2019-01-04T04:33:30.710Z,5.33
2019-01-04T04:34:29.278Z,5.25
2019-01-04T04:35:28.023Z,5.36
2019-01-04T04:36:26.755Z,5.27
2019-01-04T04:37:25.374Z,5.28
2019-01-04T04:38:24.099Z,5.22
2019-01-04T04:39:22.636Z,5.2
2019-01-04T04:40:21.216Z,5.21
2019-01-04T04:41:19.771Z,5.25
2019-01-04T04:42:18.374Z,5.21
2019-01-04T04:43:17.008Z,5.2
2019-01-04T04:44:15.781Z,5.06
2019-01-04T04:45:14.591Z,5.22
2019-01-04T04:46:13.132Z,5.24
2019-01-04T04:47:11.830Z,5.17
2019-01-04T04:48:10.485Z,5.17
2019-01-04T04:49:09.074Z,5.17
2019-01-04T04:50:07.681Z,5.25
2019-01-04T04:51:06.402Z,5.12
2019-01-04T04:52:04.929Z,5.1
2019-01-04T04:53:03.526Z,5.17
2019-01-04T04:54:02.377Z,5
2019-01-04T04:55:00.929Z,5.1
2019-01-04T04:55:59.483Z,5.15
2019-01-04T04:56:58.099Z,5.07
2019-01-04T04:57:56.649Z,5.12
2019-01-04T04:58:55.222Z,5.06
2019-01-04T05:01:35.587Z,5.04
2019-01-04T05:02:34.389Z,4.99
2019-01-04T05:03:32.940Z,5.06
2019-01-04T05:04:31.494Z,5.07
2019-01-04T05:05:30.115Z,5.12
2019-01-04T05:06:28.777Z,4.99
2019-01-04T05:07:27.334Z,4.89
2019-01-04T05:08:25.974Z,4.99
2019-01-04T05:09:24.714Z,4.89
2019-01-04T05:10:23.228Z,4.94
2019-01-04T05:11:22.094Z,4.86
2019-01-04T05:12:20.746Z,5.04
2019-01-04T05:13:19.287Z,5.04
2019-01-04T05:14:17.842Z,5.02
2019-01-04T05:15:16.388Z,4.99
2019-01-04T05:16:14.901Z,5.02
2019-01-04T05:17:13.497Z,5.1
2019-01-04T05:18:12.244Z,5.07
2019-01-04T05:21:35.579Z,5.1
2019-01-04T05:22:34.203Z,5.02
2019-01-04T05:23:32.777Z,5.07
2019-01-04T05:24:31.334Z,5.09
2019-01-04T05:25:29.958Z,5.1
2019-01-04T05:26:28.465Z,5.04
2019-01-04T05:27:27.023Z,5.24
2019-01-04T05:28:25.641Z,5.25
2019-01-04T05:29:24.451Z,5.07
2019-01-04T05:30:22.992Z,5.1
2019-01-04T05:31:21.909Z,5.18
2019-01-04T05:32:20.429Z,5.28
2019-01-04T05:33:18.986Z,5.28
2019-01-04T05:34:19.158Z,5.21
2019-01-04T05:35:16.420Z,5.1
2019-01-04T05:36:14.995Z,5.12
2019-01-04T05:37:13.670Z,5.25
2019-01-04T05:38:12.416Z,5.24
2019-01-04T05:39:10.957Z,5.02
2019-01-04T05:40:09.549Z,4.99
2019-01-04T05:41:08.096Z,5.15
2019-01-04T05:42:06.669Z,5.22
2019-01-04T05:43:05.250Z,5.09
2019-01-04T05:44:03.947Z,5.2
2019-01-04T05:45:02.605Z,5.21
2019-01-04T05:46:01.146Z,5.28
2019-01-04T05:46:59.839Z,5.31
2019-01-04T05:47:58.563Z,5.38
2019-01-04T05:48:57.110Z,5.3
2019-01-04T05:49:55.689Z,5.39
2019-01-04T05:50:54.220Z,5.2
2019-01-04T05:51:52.812Z,5.28
2019-01-04T05:52:51.354Z,5.24
2019-01-04T05:53:50.119Z,5.2
2019-01-04T05:54:48.835Z,5.21
2019-01-04T05:55:47.447Z,5.25
2019-01-04T05:56:46.160Z,5.21
2019-01-04T05:57:44.777Z,5.17
2019-01-04T05:58:43.327Z,5.22
2019-01-04T05:59:41.878Z,5.31
2019-01-04T06:00:41.304Z,5.3
2019-01-04T06:01:39.827Z,5.35
2019-01-04T06:02:38.435Z,5.27
2019-01-04T06:03:36.997Z,5.31
2019-01-04T06:04:35.640Z,5.39
2019-01-04T06:05:34.494Z,5.36
2019-01-04T06:06:33.049Z,5.24
2019-01-04T06:07:32.531Z,5.2
2019-01-04T06:08:31.107Z,5.27
2019-01-04T06:09:29.749Z,5.31
2019-01-04T06:10:28.418Z,5.22
2019-01-04T06:11:26.983Z,5.3
2019-01-04T06:12:25.538Z,5.18
2019-01-04T06:13:24.044Z,5.2
2019-01-04T06:14:22.591Z,5.33
2019-01-04T06:15:21.130Z,5.28
2019-01-04T06:16:19.879Z,5.2
2019-01-04T06:17:18.551Z,5.25
2019-01-04T06:18:17.091Z,5.3
2019-01-04T06:19:15.979Z,5.27
2019-01-04T06:20:14.611Z,5.38
2019-01-04T06:21:13.147Z,5.35
2019-01-04T06:22:11.721Z,5.36
2019-01-04T06:23:10.485Z,5.39
2019-01-04T06:24:09.007Z,5.42
2019-01-04T06:25:07.658Z,5.4
2019-01-04T06:26:06.397Z,5.39
2019-01-04T06:27:04.940Z,5.42
2019-01-04T06:28:03.481Z,5.3
2019-01-04T06:29:02.164Z,5.33
2019-01-04T06:30:00.733Z,5.28
2019-01-04T06:30:59.266Z,5.33
2019-01-04T06:31:57.833Z,5.25
2019-01-04T06:32:56.481Z,5.4
2019-01-04T06:33:55.025Z,5.45
2019-01-04T06:34:53.669Z,5.43
2019-01-04T06:35:52.527Z,5.3
2019-01-04T06:36:51.055Z,5.21
2019-01-04T06:37:49.719Z,5.27
2019-01-04T06:38:48.325Z,5.3
2019-01-04T06:39:46.861Z,5.27
2019-01-04T06:40:45.419Z,5.36
2019-01-04T06:41:44.243Z,5.35
2019-01-04T06:42:42.780Z,5.4
2019-01-04T06:43:41.318Z,5.31
2019-01-04T06:46:21.801Z,5.3
2019-01-04T06:47:20.559Z,5.22
2019-01-04T06:48:19.109Z,5.22
2019-01-04T06:49:17.808Z,5.33
2019-01-04T06:50:16.622Z,5.22
2019-01-04T06:51:15.380Z,5.36
2019-01-04T06:52:13.969Z,5.43
2019-01-04T06:53:12.597Z,5.39
2019-01-04T06:54:11.156Z,5.31
2019-01-04T06:55:09.873Z,5.28
2019-01-04T06:56:08.671Z,5.43
2019-01-04T06:57:07.336Z,5.4
2019-01-04T06:58:05.968Z,5.43
2019-01-04T06:59:04.589Z,5.3
2019-01-04T07:00:03.279Z,5.35
2019-01-04T07:01:01.976Z,5.22
2019-01-04T07:02:00.586Z,5.22
2019-01-04T07:02:59.136Z,5.31
2019-01-04T07:03:57.933Z,5.28
2019-01-04T07:04:56.647Z,5.15
2019-01-04T07:05:55.436Z,5.18
2019-01-04T07:06:54.498Z,5.24
2019-01-04T07:07:53.024Z,5.33
2019-01-04T07:08:51.563Z,5.28
2019-01-04T07:09:50.229Z,5.17
2019-01-04T07:10:49.066Z,5.22
2019-01-04T07:11:47.599Z,5.21
2019-01-04T07:12:47.032Z,5.27
2019-01-04T07:13:45.586Z,5.28
2019-01-04T07:14:44.519Z,5.33
2019-01-04T07:15:43.118Z,5.36
2019-01-04T07:17:09.225Z,5.31
2019-01-04T07:18:08.008Z,5.25
2019-01-04T07:19:06.741Z,5.21
2019-01-04T07:20:05.335Z,5.38
2019-01-04T07:21:04.020Z,5.31
2019-01-04T07:22:02.741Z,5.3
2019-01-04T07:23:01.288Z,5.38
2019-01-04T07:23:59.907Z,5.39
2019-01-04T07:24:58.637Z,5.49
2019-01-04T07:25:57.455Z,5.4
2019-01-04T07:26:56.065Z,5.35
2019-01-04T07:27:54.757Z,5.35
2019-01-04T07:28:53.583Z,5.27
2019-01-04T07:29:52.420Z,5.4
2019-01-04T07:30:51.004Z,5.42
2019-01-04T07:31:49.654Z,5.33
2019-01-04T07:32:48.397Z,5.38
2019-01-04T07:33:47.040Z,5.39
2019-01-04T07:34:45.780Z,5.3
2019-01-04T07:35:44.517Z,5.33
2019-01-04T07:36:43.039Z,5.35
2019-01-04T07:37:41.724Z,5.24
2019-01-04T07:38:40.443Z,5.25
2019-01-04T07:39:39.014Z,5.06
2019-01-04T07:40:37.934Z,5.12
2019-01-04T07:41:36.700Z,5.13
2019-01-04T07:42:35.270Z,5.21
2019-01-04T07:43:34.015Z,5.15
2019-01-04T07:44:32.876Z,5.39
2019-01-04T07:45:31.430Z,5.46
2019-01-04T07:46:30.444Z,5.39
2019-01-04T07:47:28.997Z,5.38
2019-01-04T07:48:27.563Z,5.43
2019-01-04T07:49:26.081Z,5.38
2019-01-04T07:50:24.629Z,5.39
2019-01-04T07:51:23.129Z,5.39
2019-01-04T07:52:21.657Z,5.4
2019-01-04T07:53:20.178Z,5.31
2019-01-04T07:54:18.731Z,5.4
2019-01-04T07:55:18.026Z,5.43
2019-01-04T07:56:16.694Z,5.39
2019-01-04T07:57:15.241Z,5.31
2019-01-04T07:58:13.750Z,5.2
2019-01-04T07:59:12.275Z,5.3
2019-01-04T08:00:10.816Z,5.36
2019-01-04T08:01:09.393Z,5.36
2019-01-04T08:02:08.107Z,5.42
2019-01-04T08:03:06.796Z,5.4
2019-01-04T08:04:05.472Z,5.24
2019-01-04T08:05:04.193Z,5.38
2019-01-04T08:06:02.806Z,5.53
2019-01-04T08:07:01.360Z,5.4
2019-01-04T08:08:00.491Z,5.39
2019-01-04T08:08:58.925Z,5.53
2019-01-04T08:09:57.617Z,5.49
2019-01-04T08:10:56.430Z,5.57
2019-01-04T08:11:54.996Z,5.49
2019-01-04T08:12:53.519Z,5.57
2019-01-04T08:13:52.123Z,5.57
2019-01-04T08:14:50.703Z,5.48
2019-01-04T08:15:49.249Z,5.43
2019-01-04T08:16:47.898Z,5.56
2019-01-04T08:17:46.560Z,5.54
2019-01-04T08:20:26.610Z,5.39
2019-01-04T08:21:25.143Z,5.42
2019-01-04T08:22:23.839Z,5.39
2019-01-04T08:23:22.628Z,5.33
2019-01-04T08:24:21.110Z,5.27
2019-01-04T08:25:20.317Z,5.43
2019-01-04T08:26:18.898Z,5.51
2019-01-04T08:27:17.403Z,5.61
2019-01-04T08:28:16.311Z,5.72
2019-01-04T08:29:15.557Z,5.68
2019-01-04T08:30:14.256Z,5.76
2019-01-04T08:31:12.777Z,5.71
2019-01-04T08:32:11.289Z,5.72
2019-01-04T08:33:09.978Z,5.89
2019-01-04T08:34:08.647Z,5.71
2019-01-04T08:35:07.222Z,5.61
2019-01-04T08:36:05.971Z,5.53
2019-01-04T08:37:04.672Z,5.49
2019-01-04T08:38:03.225Z,5.58
2019-01-04T08:39:01.809Z,5.64
2019-01-04T08:40:00.321Z,5.74
2019-01-04T08:40:58.870Z,5.76
2019-01-04T08:41:57.404Z,5.72
2019-01-04T08:42:56.118Z,5.83
2019-01-04T08:43:54.813Z,5.76
2019-01-04T08:44:53.364Z,5.89
2019-01-04T08:45:52.221Z,5.74
2019-01-04T08:46:50.788Z,5.75
2019-01-04T08:47:50.010Z,5.72
2019-01-04T08:48:47.988Z,5.65
2019-01-04T08:49:46.545Z,5.64
2019-01-04T08:50:45.211Z,5.72
2019-01-04T08:51:43.835Z,5.89
2019-01-04T08:52:42.641Z,5.71
2019-01-04T08:53:41.194Z,5.85
2019-01-04T08:54:39.963Z,5.81
2019-01-04T08:55:38.521Z,5.94
2019-01-04T08:56:37.083Z,6.01
2019-01-04T08:57:35.593Z,5.99
2019-01-04T08:58:34.131Z,5.94
2019-01-04T08:59:32.707Z,6.01
2019-01-04T09:00:31.490Z,5.99
2019-01-04T09:01:30.454Z,5.91
2019-01-04T09:02:29.049Z,5.83
2019-01-04T09:03:27.565Z,5.89
2019-01-04T09:04:26.169Z,5.99
2019-01-04T09:05:24.735Z,5.85
2019-01-04T09:06:23.238Z,5.9
2019-01-04T09:07:21.785Z,5.93
2019-01-04T09:08:20.561Z,5.83
2019-01-04T09:09:19.080Z,5.81
2019-01-04T09:10:17.611Z,5.89
2019-01-04T09:11:16.401Z,6
2019-01-04T09:12:14.957Z,6.14
2019-01-04T09:13:13.517Z,6.04
2019-01-04T09:14:12.267Z,6.14
2019-01-04T09:15:10.795Z,6.18
2019-01-04T09:16:09.330Z,6.14
2019-01-04T09:17:07.832Z,6.12
2019-01-04T09:18:07.132Z,6.11
2019-01-04T09:19:05.761Z,6.09
2019-01-04T09:20:04.384Z,5.96
2019-01-04T09:21:02.925Z,5.96
2019-01-04T09:22:01.441Z,6.09
2019-01-04T09:22:59.965Z,6.03
2019-01-04T09:23:58.567Z,6.08
2019-01-04T09:24:57.321Z,5.94
2019-01-04T09:25:55.876Z,6.04
2019-01-04T09:26:54.747Z,6.03
2019-01-04T09:27:53.257Z,6.04
2019-01-04T09:31:32.328Z,6.18
2019-01-04T09:32:30.951Z,6.31
2019-01-04T09:33:29.503Z,6.08
2019-01-04T09:34:28.355Z,6.27
2019-01-04T09:35:26.889Z,6.15
2019-01-04T09:36:25.412Z,6.03
2019-01-04T09:37:24.045Z,6.08
2019-01-04T09:38:22.590Z,6.12
2019-01-04T09:39:21.177Z,6.06
2019-01-04T09:40:19.680Z,6.06
2019-01-04T09:41:18.315Z,5.96
2019-01-04T09:42:16.835Z,6.06
2019-01-04T09:43:15.377Z,6
2019-01-04T09:44:14.030Z,6
2019-01-04T09:45:12.758Z,6.15
2019-01-04T09:46:11.307Z,6.17
2019-01-04T09:47:10.026Z,6.19
2019-01-04T09:48:08.993Z,6.21
2019-01-04T09:50:32.479Z,6.15
2019-01-04T09:51:31.116Z,6.22
2019-01-04T09:52:29.820Z,6.33
2019-01-04T09:53:28.617Z,6.27
2019-01-04T09:54:27.167Z,6.12
2019-01-04T09:55:26.454Z,6.22
2019-01-04T09:56:25.015Z,6.27
2019-01-04T09:57:23.817Z,6.3
2019-01-04T09:58:22.189Z,6.3
2019-01-04T09:59:20.744Z,6.33
2019-01-04T10:00:19.320Z,6.4
2019-01-04T10:01:18.274Z,6.33
2019-01-04T10:02:16.836Z,6.33
2019-01-04T10:03:15.454Z,6.46
2019-01-04T10:04:14.110Z,6.51
2019-01-04T10:05:12.856Z,6.43
2019-01-04T10:06:11.407Z,6.51
2019-01-04T10:07:10.178Z,6.44
2019-01-04T10:08:08.893Z,6.25
2019-01-04T10:09:07.491Z,6.33
2019-01-04T10:10:06.199Z,6.27
2019-01-04T10:11:04.760Z,6.27
2019-01-04T10:12:03.375Z,6.41
2019-01-04T10:13:01.923Z,6.48
2019-01-04T10:14:00.519Z,6.48
2019-01-04T10:14:59.072Z,6.49
2019-01-04T10:15:57.838Z,6.4
2019-01-04T10:16:56.642Z,6.34
2019-01-04T10:17:55.324Z,6.4
2019-01-04T10:18:54.007Z,6.25
2019-01-04T10:19:52.513Z,6.34
2019-01-04T10:20:51.083Z,6.48
2019-01-04T10:24:30.853Z,6.21
2019-01-04T10:25:29.478Z,6.19
2019-01-04T10:26:28.461Z,6.15
2019-01-04T10:27:26.935Z,6
2019-01-04T10:28:25.449Z,6
2019-01-04T10:29:24.304Z,6.04
2019-01-04T10:30:22.879Z,6.04
2019-01-04T10:31:21.434Z,6.08
2019-01-04T10:32:20.573Z,5.97
2019-01-04T10:42:58.307Z,6.01
2019-01-04T10:43:56.885Z,6.08
2019-01-04T10:44:55.536Z,6.15
2019-01-04T10:45:54.481Z,6.27
2019-01-04T10:46:53.133Z,6.49
2019-01-04T10:47:51.864Z,6.48
2019-01-04T10:48:50.520Z,6.41
2019-01-04T10:49:49.076Z,6.44
2019-01-04T10:50:47.632Z,6.46
2019-01-04T10:51:46.162Z,6.54
2019-01-04T10:52:44.711Z,6.33
2019-01-04T10:53:43.267Z,6.38
2019-01-04T10:54:41.943Z,6.55
2019-01-04T10:55:40.904Z,6.56
2019-01-04T10:56:40.188Z,6.54
2019-01-04T10:57:38.745Z,6.54
2019-01-04T10:58:37.356Z,6.56
2019-01-04T10:59:35.997Z,6.3
2019-01-04T11:00:34.804Z,6.28
2019-01-04T11:01:33.395Z,6.3
2019-01-04T11:02:32.096Z,6.28
2019-01-04T11:03:30.826Z,6.34
2019-01-04T11:04:29.355Z,6.36
2019-01-04T11:05:28.105Z,6.41
2019-01-04T11:06:26.832Z,6.4
2019-01-04T11:07:25.494Z,6.25
2019-01-04T11:08:24.224Z,6.34
2019-01-04T11:09:23.007Z,6.15
2019-01-04T11:10:21.597Z,6.27
2019-01-04T11:11:20.292Z,6.04
2019-01-04T11:12:18.840Z,6.28
2019-01-04T11:13:17.454Z,6.21
2019-01-04T11:14:16.291Z,6.33
2019-01-04T11:15:14.991Z,6.3
2019-01-04T11:16:13.613Z,6.19
2019-01-04T11:17:12.316Z,6.08
2019-01-04T11:18:10.917Z,6.08
2019-01-04T11:19:09.480Z,6.08
2019-01-04T11:20:08.087Z,6.17
2019-01-04T11:21:06.584Z,6.09
2019-01-04T11:22:05.145Z,6.15
2019-01-04T11:23:03.719Z,6.15
2019-01-04T11:24:02.450Z,6.17
2019-01-04T11:25:00.958Z,6.17
2019-01-04T11:25:59.512Z,6.19
2019-01-04T11:26:58.325Z,6.25
2019-01-04T11:27:56.966Z,6.09
2019-01-04T11:28:55.553Z,6.19
2019-01-04T11:29:54.156Z,6.15
2019-01-04T11:30:52.693Z,6.17
2019-01-04T11:31:51.273Z,5.96
2019-01-04T11:32:49.779Z,6.15
2019-01-04T11:33:50.480Z,6.21
2019-01-04T11:34:49.022Z,6.09
2019-01-04T11:35:47.597Z,6.14
2019-01-04T11:36:46.527Z,6.04
2019-01-04T11:37:45.073Z,6.25
2019-01-04T11:38:44.549Z,6.19
2019-01-04T11:39:42.214Z,6.25
2019-01-04T11:40:40.795Z,6.34
2019-01-04T11:41:39.339Z,6.3
2019-01-04T11:42:37.896Z,6.31
2019-01-04T11:43:36.645Z,6.33
2019-01-04T11:44:35.153Z,6.52
2019-01-04T11:45:33.794Z,6.64
2019-01-04T11:46:32.555Z,6.79
2019-01-04T11:47:31.189Z,6.71
2019-01-04T11:48:29.935Z,6.91
2019-01-04T11:49:28.664Z,6.81
2019-01-04T11:50:27.241Z,6.79
2019-01-04T11:51:26.106Z,6.73
2019-01-04T11:52:30.959Z,6.8
2019-01-04T11:53:23.334Z,6.59
2019-01-04T11:54:22.139Z,6.62
2019-01-04T11:55:21.255Z,6.7
2019-01-04T11:56:20.155Z,6.74
2019-01-04T11:57:18.866Z,6.88
2019-01-04T11:58:17.939Z,6.87
2019-01-04T11:59:16.621Z,6.91
2019-01-04T12:00:17.861Z,7.03
2019-01-04T12:01:15.236Z,7.13
2019-01-04T12:02:16.474Z,7.12
2019-01-04T12:03:12.875Z,6.97
2019-01-04T12:04:13.157Z,7.05
2019-01-04T12:05:14.012Z,7.13
2019-01-04T12:06:13.319Z,7.15
2019-01-04T12:07:12.465Z,7.21
2019-01-04T12:08:12.452Z,7.27
2019-01-04T12:09:12.069Z,7.27
2019-01-04T12:10:11.382Z,7.3
2019-01-04T12:11:09.693Z,7.34
2019-01-04T12:12:08.486Z,7.42
2019-01-04T12:13:07.155Z,7.34
2019-01-04T12:14:05.961Z,7.43
2019-01-04T12:15:05.264Z,7.42
2019-01-04T12:16:04.748Z,7.42
2019-01-04T12:17:03.623Z,7.48
2019-01-04T12:18:02.458Z,7.5
2019-01-04T12:19:00.790Z,7.52
2019-01-04T12:19:59.829Z,7.48
2019-01-04T12:20:58.536Z,7.42
2019-01-04T12:21:57.648Z,7.45
2019-01-04T12:22:56.627Z,7.4
2019-01-04T12:23:55.307Z,7.35
2019-01-04T12:24:54.502Z,7.25
2019-01-04T12:25:53.100Z,7.31
2019-01-04T12:26:51.631Z,7.27
2019-01-04T12:27:50.297Z,7.31
2019-01-04T12:28:49.045Z,7.37
2019-01-04T12:29:47.587Z,7.4
2019-01-04T12:30:46.585Z,7.34
2019-01-04T12:31:45.277Z,7.4
2019-01-04T12:32:43.834Z,7.4
2019-01-04T12:33:42.363Z,7.31
2019-01-04T12:34:41.089Z,7.3
2019-01-04T12:35:39.558Z,7.4
2019-01-04T12:36:38.288Z,7.42
2019-01-04T12:37:37.051Z,7.4
2019-01-04T12:40:17.265Z,7.28
2019-01-04T12:41:15.799Z,7.28
2019-01-04T12:42:14.393Z,7.39
2019-01-04T12:43:12.957Z,7.4
2019-01-04T12:44:11.528Z,7.43
2019-01-04T12:45:10.253Z,7.32
2019-01-04T12:46:09.015Z,7.45
2019-01-04T12:47:07.680Z,7.5
2019-01-04T12:48:06.562Z,7.31
2019-01-04T12:49:05.113Z,7.34
2019-01-04T12:50:03.714Z,7.3
2019-01-04T12:51:02.484Z,7.39
2019-01-04T12:52:01.249Z,7.32
2019-01-04T12:53:00.643Z,7.42
2019-01-04T12:53:59.264Z,7.31
2019-01-04T12:54:57.919Z,7.42
2019-01-04T12:55:56.605Z,7.3
2019-01-04T12:56:55.245Z,7.46
2019-01-04T12:57:53.969Z,7.37
2019-01-04T12:58:52.887Z,7.45
2019-01-04T12:59:51.673Z,7.42
2019-01-04T13:00:50.231Z,7.45
2019-01-04T13:01:48.793Z,7.5
2019-01-04T13:02:47.334Z,7.48
2019-01-04T13:03:46.027Z,7.37
2019-01-04T13:04:44.945Z,7.3
2019-01-04T13:05:43.747Z,7.3
2019-01-04T13:06:42.514Z,7.3
2019-01-04T13:07:41.163Z,7.28
2019-01-04T13:08:40.935Z,7.27
2019-01-04T13:09:39.459Z,7.13
2019-01-04T13:10:38.149Z,7.03
2019-01-04T13:11:36.793Z,7.15
2019-01-04T13:12:35.356Z,7.28
2019-01-04T13:13:33.950Z,7.28
2019-01-04T13:14:32.668Z,7.32
2019-01-04T13:18:11.606Z,7.32
2019-01-04T13:19:10.366Z,7.3
2019-01-04T13:20:08.889Z,7.34
2019-01-04T13:21:07.415Z,7.31
2019-01-04T13:22:14.551Z,7.23
2019-01-04T13:23:13.037Z,7.27
2019-01-04T13:24:11.569Z,7.31
2019-01-04T13:25:10.171Z,7.37
2019-01-04T13:26:08.733Z,7.42
2019-01-04T13:45:40.800Z,6.71
2019-01-04T13:46:39.301Z,6.66
2019-01-04T13:47:37.950Z,6.56
2019-01-04T13:48:36.602Z,6.74
2019-01-04T13:49:35.221Z,6.74
2019-01-04T13:50:33.668Z,6.76
2019-01-04T13:51:32.219Z,6.62
2019-01-04T13:52:30.764Z,6.74
2019-01-04T13:53:29.273Z,6.61
2019-01-04T13:54:27.912Z,6.61
2019-01-04T13:55:26.580Z,6.64
2019-01-04T13:56:25.112Z,6.73
2019-01-04T13:57:23.735Z,6.64
2019-01-04T13:58:22.533Z,6.67
2019-01-04T13:59:21.183Z,6.61
2019-01-04T14:00:19.711Z,6.73
2019-01-04T14:01:18.302Z,6.67